sensor_id;sensor_type;location;lat;lon;timestamp;P1;durP1;ratioP1;P2;durP2;ratioP2
53503;SDS011;39387;50.998;22.340;2023-05-09T00:02:11;5.57;;;3.08;;
53503;SDS011;39387;50.998;22.340;2023-05-09T00:04:38;6.72;;;3.47;;
53503;SDS011;39387;50.998;22.340;2023-05-09T00:07:06;5.28;;;3.33;;
53503;SDS011;39387;50.998;22.340;2023-05-09T00:09:35;4.18;;;2.92;;
53503;SDS011;39387;50.998;22.340;2023-05-09T00:12:02;4.15;;;3.00;;
53503;SDS011;39387;50.998;22.340;2023-05-09T00:14:30;5.82;;;3.40;;
53503;SDS011;39387;50.998;22.340;2023-05-09T00:17:00;5.68;;;3.05;;
53503;SDS011;39387;50.998;22.340;2023-05-09T00:19:27;5.47;;;2.83;;
53503;SDS011;39387;50.998;22.340;2023-05-09T00:21:54;4.65;;;2.92;;
53503;SDS011;39387;50.998;22.340;2023-05-09T00:26:47;5.47;;;3.30;;
53503;SDS011;39387;50.998;22.340;2023-05-09T00:29:14;5.68;;;3.15;;
53503;SDS011;39387;50.998;22.340;2023-05-09T00:31:42;4.85;;;3.15;;
53503;SDS011;39387;50.998;22.340;2023-05-09T00:34:14;6.28;;;3.72;;
53503;SDS011;39387;50.998;22.340;2023-05-09T00:36:41;5.00;;;3.13;;
53503;SDS011;39387;50.998;22.340;2023-05-09T00:39:09;5.70;;;3.30;;
53503;SDS011;39387;50.998;22.340;2023-05-09T00:41:36;4.55;;;3.17;;
53503;SDS011;39387;50.998;22.340;2023-05-09T00:44:04;4.60;;;3.03;;
53503;SDS011;39387;50.998;22.340;2023-05-09T00:46:31;5.47;;;3.15;;
53503;SDS011;39387;50.998;22.340;2023-05-09T00:48:59;5.85;;;3.10;;
53503;SDS011;39387;50.998;22.340;2023-05-09T00:51:28;5.32;;;3.45;;
53503;SDS011;39387;50.998;22.340;2023-05-09T00:53:55;6.95;;;3.63;;
53503;SDS011;39387;50.998;22.340;2023-05-09T00:56:22;5.40;;;3.40;;
53503;SDS011;39387;50.998;22.340;2023-05-09T00:58:50;5.82;;;3.25;;
53503;SDS011;39387;50.998;22.340;2023-05-09T01:01:17;4.55;;;2.95;;
53503;SDS011;39387;50.998;22.340;2023-05-09T01:03:45;5.03;;;3.22;;
53503;SDS011;39387;50.998;22.340;2023-05-09T01:06:14;5.47;;;3.50;;
53503;SDS011;39387;50.998;22.340;2023-05-09T01:08:48;4.32;;;2.85;;
53503;SDS011;39387;50.998;22.340;2023-05-09T01:11:22;4.82;;;3.30;;
53503;SDS011;39387;50.998;22.340;2023-05-09T01:13:57;4.35;;;2.88;;
53503;SDS011;39387;50.998;22.340;2023-05-09T01:16:34;6.63;;;3.17;;
53503;SDS011;39387;50.998;22.340;2023-05-09T01:19:09;5.88;;;3.45;;
53503;SDS011;39387;50.998;22.340;2023-05-09T01:21:48;5.50;;;3.70;;
53503;SDS011;39387;50.998;22.340;2023-05-09T01:27:19;6.20;;;3.97;;
53503;SDS011;39387;50.998;22.340;2023-05-09T01:29:50;7.07;;;3.83;;
53503;SDS011;39387;50.998;22.340;2023-05-09T01:32:23;5.50;;;3.42;;
53503;SDS011;39387;50.998;22.340;2023-05-09T01:34:51;8.13;;;3.55;;
53503;SDS011;39387;50.998;22.340;2023-05-09T01:37:23;5.53;;;3.22;;
53503;SDS011;39387;50.998;22.340;2023-05-09T01:39:56;8.35;;;3.70;;
53503;SDS011;39387;50.998;22.340;2023-05-09T01:42:28;5.38;;;3.03;;
53503;SDS011;39387;50.998;22.340;2023-05-09T01:45:03;5.30;;;3.20;;
53503;SDS011;39387;50.998;22.340;2023-05-09T01:47:32;5.28;;;3.33;;
53503;SDS011;39387;50.998;22.340;2023-05-09T01:50:00;5.30;;;3.08;;
53503;SDS011;39387;50.998;22.340;2023-05-09T01:52:27;5.55;;;3.00;;
53503;SDS011;39387;50.998;22.340;2023-05-09T01:54:55;5.40;;;2.70;;
53503;SDS011;39387;50.998;22.340;2023-05-09T01:57:24;6.53;;;3.22;;
53503;SDS011;39387;50.998;22.340;2023-05-09T01:59:52;5.20;;;3.03;;
53503;SDS011;39387;50.998;22.340;2023-05-09T02:02:21;4.47;;;3.05;;
53503;SDS011;39387;50.998;22.340;2023-05-09T02:04:49;7.03;;;3.50;;
53503;SDS011;39387;50.998;22.340;2023-05-09T02:07:16;5.43;;;3.20;;
53503;SDS011;39387;50.998;22.340;2023-05-09T02:09:44;7.75;;;3.47;;
53503;SDS011;39387;50.998;22.340;2023-05-09T02:12:12;5.15;;;3.35;;
53503;SDS011;39387;50.998;22.340;2023-05-09T02:14:40;6.18;;;3.53;;
53503;SDS011;39387;50.998;22.340;2023-05-09T02:17:07;4.07;;;2.78;;
53503;SDS011;39387;50.998;22.340;2023-05-09T02:19:37;4.82;;;3.25;;
53503;SDS011;39387;50.998;22.340;2023-05-09T02:22:04;7.90;;;3.38;;
53503;SDS011;39387;50.998;22.340;2023-05-09T02:24:32;5.22;;;3.33;;
53503;SDS011;39387;50.998;22.340;2023-05-09T02:27:00;6.72;;;3.70;;
53503;SDS011;39387;50.998;22.340;2023-05-09T02:29:30;8.57;;;4.57;;
53503;SDS011;39387;50.998;22.340;2023-05-09T02:32:05;7.95;;;4.43;;
53503;SDS011;39387;50.998;22.340;2023-05-09T02:37:04;7.45;;;3.88;;
53503;SDS011;39387;50.998;22.340;2023-05-09T02:39:33;6.53;;;3.78;;
53503;SDS011;39387;50.998;22.340;2023-05-09T02:42:03;5.60;;;3.70;;
53503;SDS011;39387;50.998;22.340;2023-05-09T02:44:32;6.03;;;3.85;;
53503;SDS011;39387;50.998;22.340;2023-05-09T02:47:00;5.60;;;3.35;;
53503;SDS011;39387;50.998;22.340;2023-05-09T02:49:28;7.63;;;3.60;;
53503;SDS011;39387;50.998;22.340;2023-05-09T02:51:57;8.48;;;4.32;;
53503;SDS011;39387;50.998;22.340;2023-05-09T02:54:24;7.00;;;3.55;;
53503;SDS011;39387;50.998;22.340;2023-05-09T02:56:51;7.30;;;3.53;;
53503;SDS011;39387;50.998;22.340;2023-05-09T02:59:19;5.65;;;3.38;;
53503;SDS011;39387;50.998;22.340;2023-05-09T03:01:47;7.50;;;3.40;;
53503;SDS011;39387;50.998;22.340;2023-05-09T03:04:14;6.85;;;3.58;;
53503;SDS011;39387;50.998;22.340;2023-05-09T03:06:42;7.72;;;3.88;;
53503;SDS011;39387;50.998;22.340;2023-05-09T03:09:11;6.10;;;3.83;;
53503;SDS011;39387;50.998;22.340;2023-05-09T03:11:38;8.18;;;4.07;;
53503;SDS011;39387;50.998;22.340;2023-05-09T03:14:06;9.15;;;3.95;;
53503;SDS011;39387;50.998;22.340;2023-05-09T03:16:35;6.55;;;4.00;;
53503;SDS011;39387;50.998;22.340;2023-05-09T03:19:02;5.72;;;3.90;;
53503;SDS011;39387;50.998;22.340;2023-05-09T03:21:30;6.03;;;3.25;;
53503;SDS011;39387;50.998;22.340;2023-05-09T03:23:58;6.65;;;3.83;;
53503;SDS011;39387;50.998;22.340;2023-05-09T03:26:26;7.30;;;4.78;;
53503;SDS011;39387;50.998;22.340;2023-05-09T03:28:54;7.93;;;4.30;;
53503;SDS011;39387;50.998;22.340;2023-05-09T03:31:21;6.90;;;4.63;;
53503;SDS011;39387;50.998;22.340;2023-05-09T03:33:48;10.13;;;4.50;;
53503;SDS011;39387;50.998;22.340;2023-05-09T03:36:16;8.90;;;4.25;;
53503;SDS011;39387;50.998;22.340;2023-05-09T03:38:43;8.70;;;4.18;;
53503;SDS011;39387;50.998;22.340;2023-05-09T03:41:11;6.65;;;3.83;;
53503;SDS011;39387;50.998;22.340;2023-05-09T03:43:40;6.82;;;4.38;;
53503;SDS011;39387;50.998;22.340;2023-05-09T03:46:08;8.00;;;4.20;;
53503;SDS011;39387;50.998;22.340;2023-05-09T03:48:35;7.78;;;3.58;;
53503;SDS011;39387;50.998;22.340;2023-05-09T03:51:03;8.35;;;3.88;;
53503;SDS011;39387;50.998;22.340;2023-05-09T03:53:30;5.63;;;3.58;;
53503;SDS011;39387;50.998;22.340;2023-05-09T03:55:58;6.65;;;3.58;;
53503;SDS011;39387;50.998;22.340;2023-05-09T03:58:25;6.32;;;3.92;;
53503;SDS011;39387;50.998;22.340;2023-05-09T04:00:54;7.57;;;3.40;;
53503;SDS011;39387;50.998;22.340;2023-05-09T04:03:21;7.10;;;3.50;;
53503;SDS011;39387;50.998;22.340;2023-05-09T04:05:49;5.95;;;3.55;;
53503;SDS011;39387;50.998;22.340;2023-05-09T04:08:16;5.80;;;3.55;;
53503;SDS011;39387;50.998;22.340;2023-05-09T04:10:44;6.03;;;3.33;;
53503;SDS011;39387;50.998;22.340;2023-05-09T04:13:11;6.97;;;3.90;;
53503;SDS011;39387;50.998;22.340;2023-05-09T04:15:39;6.72;;;3.92;;
53503;SDS011;39387;50.998;22.340;2023-05-09T04:18:07;6.03;;;3.95;;
53503;SDS011;39387;50.998;22.340;2023-05-09T04:20:35;7.43;;;4.15;;
53503;SDS011;39387;50.998;22.340;2023-05-09T04:23:02;7.55;;;3.95;;
53503;SDS011;39387;50.998;22.340;2023-05-09T04:25:30;6.88;;;4.00;;
53503;SDS011;39387;50.998;22.340;2023-05-09T04:27:59;6.07;;;4.00;;
53503;SDS011;39387;50.998;22.340;2023-05-09T04:30:26;8.18;;;4.57;;
53503;SDS011;39387;50.998;22.340;2023-05-09T04:32:54;6.63;;;4.05;;
53503;SDS011;39387;50.998;22.340;2023-05-09T04:35:23;6.70;;;3.85;;
53503;SDS011;39387;50.998;22.340;2023-05-09T04:37:51;5.63;;;4.07;;
53503;SDS011;39387;50.998;22.340;2023-05-09T04:40:18;8.63;;;4.88;;
53503;SDS011;39387;50.998;22.340;2023-05-09T04:42:46;11.00;;;6.38;;
53503;SDS011;39387;50.998;22.340;2023-05-09T04:45:13;8.45;;;5.95;;
53503;SDS011;39387;50.998;22.340;2023-05-09T04:47:40;6.47;;;3.95;;
53503;SDS011;39387;50.998;22.340;2023-05-09T04:50:08;7.47;;;3.95;;
53503;SDS011;39387;50.998;22.340;2023-05-09T04:52:37;5.63;;;3.50;;
53503;SDS011;39387;50.998;22.340;2023-05-09T04:55:05;4.38;;;3.30;;
53503;SDS011;39387;50.998;22.340;2023-05-09T04:57:33;5.45;;;3.42;;
53503;SDS011;39387;50.998;22.340;2023-05-09T05:00:00;4.22;;;3.25;;
53503;SDS011;39387;50.998;22.340;2023-05-09T05:04:58;4.47;;;3.38;;
53503;SDS011;39387;50.998;22.340;2023-05-09T05:07:25;3.67;;;2.80;;
53503;SDS011;39387;50.998;22.340;2023-05-09T05:09:54;3.88;;;2.97;;
53503;SDS011;39387;50.998;22.340;2023-05-09T05:12:22;4.63;;;2.85;;
53503;SDS011;39387;50.998;22.340;2023-05-09T05:14:49;4.22;;;2.70;;
53503;SDS011;39387;50.998;22.340;2023-05-09T05:17:17;4.05;;;3.00;;
53503;SDS011;39387;50.998;22.340;2023-05-09T05:19:45;3.67;;;3.10;;
53503;SDS011;39387;50.998;22.340;2023-05-09T05:22:12;3.88;;;3.00;;
53503;SDS011;39387;50.998;22.340;2023-05-09T05:24:39;3.08;;;2.78;;
53503;SDS011;39387;50.998;22.340;2023-05-09T05:27:08;3.50;;;2.90;;
53503;SDS011;39387;50.998;22.340;2023-05-09T05:29:36;2.95;;;2.42;;
53503;SDS011;39387;50.998;22.340;2023-05-09T05:32:03;3.10;;;2.80;;
53503;SDS011;39387;50.998;22.340;2023-05-09T05:34:31;3.50;;;3.08;;
53503;SDS011;39387;50.998;22.340;2023-05-09T05:36:58;3.20;;;2.78;;
53503;SDS011;39387;50.998;22.340;2023-05-09T05:39:25;3.95;;;3.30;;
53503;SDS011;39387;50.998;22.340;2023-05-09T05:41:52;4.15;;;3.13;;
53503;SDS011;39387;50.998;22.340;2023-05-09T05:44:21;4.03;;;2.83;;
53503;SDS011;39387;50.998;22.340;2023-05-09T05:46:49;4.13;;;3.00;;
53503;SDS011;39387;50.998;22.340;2023-05-09T05:49:16;5.65;;;3.17;;
53503;SDS011;39387;50.998;22.340;2023-05-09T05:51:43;4.38;;;3.20;;
53503;SDS011;39387;50.998;22.340;2023-05-09T05:54:11;3.70;;;2.72;;
53503;SDS011;39387;50.998;22.340;2023-05-09T05:56:38;4.55;;;2.88;;
53503;SDS011;39387;50.998;22.340;2023-05-09T05:59:06;4.75;;;2.78;;
53503;SDS011;39387;50.998;22.340;2023-05-09T06:01:34;4.88;;;3.00;;
53503;SDS011;39387;50.998;22.340;2023-05-09T06:04:02;3.78;;;2.67;;
53503;SDS011;39387;50.998;22.340;2023-05-09T06:06:30;3.50;;;2.70;;
53503;SDS011;39387;50.998;22.340;2023-05-09T06:08:58;4.78;;;2.65;;
53503;SDS011;39387;50.998;22.340;2023-05-09T06:11:25;3.80;;;2.72;;
53503;SDS011;39387;50.998;22.340;2023-05-09T06:13:53;3.72;;;2.92;;
53503;SDS011;39387;50.998;22.340;2023-05-09T06:16:20;4.30;;;3.10;;
53503;SDS011;39387;50.998;22.340;2023-05-09T06:18:49;4.40;;;2.63;;
53503;SDS011;39387;50.998;22.340;2023-05-09T06:21:16;2.75;;;2.08;;
53503;SDS011;39387;50.998;22.340;2023-05-09T06:23:43;2.95;;;2.30;;
53503;SDS011;39387;50.998;22.340;2023-05-09T06:26:10;2.75;;;2.10;;
53503;SDS011;39387;50.998;22.340;2023-05-09T06:28:39;3.22;;;2.20;;
53503;SDS011;39387;50.998;22.340;2023-05-09T06:31:06;3.08;;;2.47;;
53503;SDS011;39387;50.998;22.340;2023-05-09T06:33:34;3.03;;;2.10;;
53503;SDS011;39387;50.998;22.340;2023-05-09T06:36:03;1.70;;;1.60;;
53503;SDS011;39387;50.998;22.340;2023-05-09T06:38:31;2.60;;;1.85;;
53503;SDS011;39387;50.998;22.340;2023-05-09T06:40:59;2.45;;;1.98;;
53503;SDS011;39387;50.998;22.340;2023-05-09T06:43:27;2.83;;;2.25;;
53503;SDS011;39387;50.998;22.340;2023-05-09T06:45:54;2.38;;;1.90;;
53503;SDS011;39387;50.998;22.340;2023-05-09T06:48:22;3.05;;;2.10;;
53503;SDS011;39387;50.998;22.340;2023-05-09T06:50:49;2.42;;;1.90;;
53503;SDS011;39387;50.998;22.340;2023-05-09T06:53:18;2.30;;;1.85;;
53503;SDS011;39387;50.998;22.340;2023-05-09T06:55:45;2.55;;;1.95;;
53503;SDS011;39387;50.998;22.340;2023-05-09T06:58:13;3.28;;;2.22;;
53503;SDS011;39387;50.998;22.340;2023-05-09T07:00:40;2.10;;;1.52;;
53503;SDS011;39387;50.998;22.340;2023-05-09T07:03:08;2.00;;;1.77;;
53503;SDS011;39387;50.998;22.340;2023-05-09T07:05:36;2.00;;;1.60;;
53503;SDS011;39387;50.998;22.340;2023-05-09T07:08:03;2.58;;;1.63;;
53503;SDS011;39387;50.998;22.340;2023-05-09T07:10:32;2.90;;;1.75;;
53503;SDS011;39387;50.998;22.340;2023-05-09T07:13:00;2.65;;;1.67;;
53503;SDS011;39387;50.998;22.340;2023-05-09T07:15:27;2.22;;;1.75;;
53503;SDS011;39387;50.998;22.340;2023-05-09T07:17:55;3.47;;;1.98;;
53503;SDS011;39387;50.998;22.340;2023-05-09T07:20:22;3.45;;;1.95;;
53503;SDS011;39387;50.998;22.340;2023-05-09T07:22:50;2.67;;;1.90;;
53503;SDS011;39387;50.998;22.340;2023-05-09T07:25:17;2.97;;;2.10;;
53503;SDS011;39387;50.998;22.340;2023-05-09T07:27:46;2.53;;;1.88;;
53503;SDS011;39387;50.998;22.340;2023-05-09T07:30:14;2.78;;;1.77;;
53503;SDS011;39387;50.998;22.340;2023-05-09T07:32:41;2.03;;;1.80;;
53503;SDS011;39387;50.998;22.340;2023-05-09T07:35:08;1.70;;;1.58;;
53503;SDS011;39387;50.998;22.340;2023-05-09T07:37:36;1.67;;;1.58;;
53503;SDS011;39387;50.998;22.340;2023-05-09T07:40:03;3.30;;;1.60;;
53503;SDS011;39387;50.998;22.340;2023-05-09T07:42:32;3.22;;;1.38;;
53503;SDS011;39387;50.998;22.340;2023-05-09T07:45:00;2.45;;;1.65;;
53503;SDS011;39387;50.998;22.340;2023-05-09T07:47:30;2.85;;;1.77;;
53503;SDS011;39387;50.998;22.340;2023-05-09T07:49:58;1.83;;;1.60;;
53503;SDS011;39387;50.998;22.340;2023-05-09T07:52:25;1.95;;;1.73;;
53503;SDS011;39387;50.998;22.340;2023-05-09T07:54:52;1.90;;;1.50;;
53503;SDS011;39387;50.998;22.340;2023-05-09T07:57:20;1.95;;;1.40;;
53503;SDS011;39387;50.998;22.340;2023-05-09T07:59:48;2.17;;;1.65;;
53503;SDS011;39387;50.998;22.340;2023-05-09T08:02:17;1.88;;;1.40;;
53503;SDS011;39387;50.998;22.340;2023-05-09T08:04:44;1.55;;;1.20;;
53503;SDS011;39387;50.998;22.340;2023-05-09T08:07:14;3.17;;;1.50;;
53503;SDS011;39387;50.998;22.340;2023-05-09T08:09:41;1.90;;;1.48;;
53503;SDS011;39387;50.998;22.340;2023-05-09T08:12:08;2.22;;;1.45;;
53503;SDS011;39387;50.998;22.340;2023-05-09T08:14:35;2.40;;;1.30;;
53503;SDS011;39387;50.998;22.340;2023-05-09T08:17:03;1.92;;;1.23;;
53503;SDS011;39387;50.998;22.340;2023-05-09T08:19:32;1.48;;;1.20;;
53503;SDS011;39387;50.998;22.340;2023-05-09T08:21:59;1.90;;;1.50;;
53503;SDS011;39387;50.998;22.340;2023-05-09T08:24:26;1.65;;;1.50;;
53503;SDS011;39387;50.998;22.340;2023-05-09T08:26:54;1.52;;;1.42;;
53503;SDS011;39387;50.998;22.340;2023-05-09T08:29:21;2.28;;;1.50;;
53503;SDS011;39387;50.998;22.340;2023-05-09T08:31:48;2.70;;;1.50;;
53503;SDS011;39387;50.998;22.340;2023-05-09T08:34:16;2.25;;;1.50;;
53503;SDS011;39387;50.998;22.340;2023-05-09T08:36:45;1.60;;;1.50;;
53503;SDS011;39387;50.998;22.340;2023-05-09T08:39:12;2.38;;;1.42;;
53503;SDS011;39387;50.998;22.340;2023-05-09T08:41:40;3.15;;;1.67;;
53503;SDS011;39387;50.998;22.340;2023-05-09T08:44:07;2.05;;;1.50;;
53503;SDS011;39387;50.998;22.340;2023-05-09T08:46:36;3.22;;;1.40;;
53503;SDS011;39387;50.998;22.340;2023-05-09T08:49:04;2.30;;;1.60;;
53503;SDS011;39387;50.998;22.340;2023-05-09T08:51:33;1.67;;;1.30;;
53503;SDS011;39387;50.998;22.340;2023-05-09T08:54:02;1.75;;;1.30;;
53503;SDS011;39387;50.998;22.340;2023-05-09T08:56:30;1.73;;;1.35;;
53503;SDS011;39387;50.998;22.340;2023-05-09T08:58:58;1.77;;;1.15;;
53503;SDS011;39387;50.998;22.340;2023-05-09T09:01:25;1.75;;;1.30;;
53503;SDS011;39387;50.998;22.340;2023-05-09T09:03:53;2.20;;;1.58;;
53503;SDS011;39387;50.998;22.340;2023-05-09T09:06:21;2.28;;;1.50;;
53503;SDS011;39387;50.998;22.340;2023-05-09T09:08:50;2.60;;;1.50;;
53503;SDS011;39387;50.998;22.340;2023-05-09T09:11:20;1.58;;;1.40;;
53503;SDS011;39387;50.998;22.340;2023-05-09T09:13:48;2.00;;;1.60;;
53503;SDS011;39387;50.998;22.340;2023-05-09T09:16:17;3.08;;;1.80;;
53503;SDS011;39387;50.998;22.340;2023-05-09T09:18:45;2.17;;;1.70;;
53503;SDS011;39387;50.998;22.340;2023-05-09T09:21:14;2.38;;;1.70;;
53503;SDS011;39387;50.998;22.340;2023-05-09T09:23:42;2.03;;;1.60;;
53503;SDS011;39387;50.998;22.340;2023-05-09T09:26:10;2.05;;;1.63;;
53503;SDS011;39387;50.998;22.340;2023-05-09T09:28:38;2.92;;;1.80;;
53503;SDS011;39387;50.998;22.340;2023-05-09T09:33:52;1.65;;;1.50;;
53503;SDS011;39387;50.998;22.340;2023-05-09T09:36:25;2.42;;;1.60;;
53503;SDS011;39387;50.998;22.340;2023-05-09T09:38:55;2.55;;;1.50;;
53503;SDS011;39387;50.998;22.340;2023-05-09T09:41:28;1.60;;;1.50;;
53503;SDS011;39387;50.998;22.340;2023-05-09T09:43:57;2.22;;;1.65;;
53503;SDS011;39387;50.998;22.340;2023-05-09T09:46:25;2.67;;;1.45;;
53503;SDS011;39387;50.998;22.340;2023-05-09T09:48:52;1.85;;;1.58;;
53503;SDS011;39387;50.998;22.340;2023-05-09T09:51:23;1.83;;;1.50;;
53503;SDS011;39387;50.998;22.340;2023-05-09T09:53:53;2.15;;;1.48;;
53503;SDS011;39387;50.998;22.340;2023-05-09T09:56:21;1.50;;;1.40;;
53503;SDS011;39387;50.998;22.340;2023-05-09T09:59:09;3.83;;;1.52;;
53503;SDS011;39387;50.998;22.340;2023-05-09T10:01:52;2.63;;;1.60;;
53503;SDS011;39387;50.998;22.340;2023-05-09T10:04:25;1.35;;;1.25;;
53503;SDS011;39387;50.998;22.340;2023-05-09T10:06:54;4.32;;;1.63;;
53503;SDS011;39387;50.998;22.340;2023-05-09T10:09:22;1.90;;;1.60;;
53503;SDS011;39387;50.998;22.340;2023-05-09T10:11:50;1.75;;;1.40;;
53503;SDS011;39387;50.998;22.340;2023-05-09T10:14:23;1.88;;;1.48;;
53503;SDS011;39387;50.998;22.340;2023-05-09T10:16:53;3.53;;;1.80;;
53503;SDS011;39387;50.998;22.340;2023-05-09T10:19:21;2.08;;;1.70;;
53503;SDS011;39387;50.998;22.340;2023-05-09T10:21:51;1.77;;;1.30;;
53503;SDS011;39387;50.998;22.340;2023-05-09T10:24:21;1.63;;;1.35;;
53503;SDS011;39387;50.998;22.340;2023-05-09T10:26:55;1.83;;;1.40;;
53503;SDS011;39387;50.998;22.340;2023-05-09T10:29:30;1.75;;;1.48;;
53503;SDS011;39387;50.998;22.340;2023-05-09T10:32:01;3.00;;;1.50;;
53503;SDS011;39387;50.998;22.340;2023-05-09T10:34:38;1.77;;;1.42;;
53503;SDS011;39387;50.998;22.340;2023-05-09T10:37:07;2.60;;;1.50;;
53503;SDS011;39387;50.998;22.340;2023-05-09T10:39:34;2.17;;;1.60;;
53503;SDS011;39387;50.998;22.340;2023-05-09T10:42:03;2.17;;;1.55;;
53503;SDS011;39387;50.998;22.340;2023-05-09T10:44:32;1.95;;;1.60;;
53503;SDS011;39387;50.998;22.340;2023-05-09T10:47:00;2.88;;;1.50;;
53503;SDS011;39387;50.998;22.340;2023-05-09T10:49:27;2.33;;;1.50;;
53503;SDS011;39387;50.998;22.340;2023-05-09T10:51:56;2.08;;;1.50;;
53503;SDS011;39387;50.998;22.340;2023-05-09T10:54:27;2.40;;;1.50;;
53503;SDS011;39387;50.998;22.340;2023-05-09T10:56:58;1.77;;;1.30;;
53503;SDS011;39387;50.998;22.340;2023-05-09T10:59:34;1.67;;;1.45;;
53503;SDS011;39387;50.998;22.340;2023-05-09T11:02:02;2.00;;;1.42;;
53503;SDS011;39387;50.998;22.340;2023-05-09T11:04:30;1.80;;;1.40;;
53503;SDS011;39387;50.998;22.340;2023-05-09T11:06:58;2.25;;;1.60;;
53503;SDS011;39387;50.998;22.340;2023-05-09T11:09:27;2.22;;;1.45;;
53503;SDS011;39387;50.998;22.340;2023-05-09T11:11:58;2.10;;;1.65;;
53503;SDS011;39387;50.998;22.340;2023-05-09T11:14:28;1.77;;;1.45;;
53503;SDS011;39387;50.998;22.340;2023-05-09T11:16:58;2.03;;;1.42;;
53503;SDS011;39387;50.998;22.340;2023-05-09T11:19:32;1.92;;;1.15;;
53503;SDS011;39387;50.998;22.340;2023-05-09T11:22:05;1.92;;;1.35;;
53503;SDS011;39387;50.998;22.340;2023-05-09T11:24:38;1.77;;;1.45;;
53503;SDS011;39387;50.998;22.340;2023-05-09T11:27:13;1.20;;;1.08;;
53503;SDS011;39387;50.998;22.340;2023-05-09T11:29:44;2.05;;;1.33;;
53503;SDS011;39387;50.998;22.340;2023-05-09T11:32:15;2.05;;;1.27;;
53503;SDS011;39387;50.998;22.340;2023-05-09T11:34:43;1.25;;;1.15;;
53503;SDS011;39387;50.998;22.340;2023-05-09T11:37:12;2.70;;;1.65;;
53503;SDS011;39387;50.998;22.340;2023-05-09T11:39:56;1.88;;;1.42;;
53503;SDS011;39387;50.998;22.340;2023-05-09T11:42:25;1.85;;;1.23;;
53503;SDS011;39387;50.998;22.340;2023-05-09T11:44:53;3.47;;;1.60;;
53503;SDS011;39387;50.998;22.340;2023-05-09T11:47:23;2.03;;;1.35;;
53503;SDS011;39387;50.998;22.340;2023-05-09T11:49:50;1.30;;;1.10;;
53503;SDS011;39387;50.998;22.340;2023-05-09T11:52:18;2.17;;;1.40;;
53503;SDS011;39387;50.998;22.340;2023-05-09T11:54:46;1.70;;;1.30;;
53503;SDS011;39387;50.998;22.340;2023-05-09T11:57:14;1.98;;;1.30;;
53503;SDS011;39387;50.998;22.340;2023-05-09T11:59:42;2.10;;;1.40;;
53503;SDS011;39387;50.998;22.340;2023-05-09T12:02:11;1.65;;;1.27;;
53503;SDS011;39387;50.998;22.340;2023-05-09T12:04:40;1.67;;;1.42;;
53503;SDS011;39387;50.998;22.340;2023-05-09T12:07:10;1.50;;;1.10;;
53503;SDS011;39387;50.998;22.340;2023-05-09T12:09:37;3.25;;;1.42;;
53503;SDS011;39387;50.998;22.340;2023-05-09T12:12:08;1.70;;;1.58;;
53503;SDS011;39387;50.998;22.340;2023-05-09T12:14:39;1.08;;;0.98;;
53503;SDS011;39387;50.998;22.340;2023-05-09T12:17:07;1.85;;;1.42;;
53503;SDS011;39387;50.998;22.340;2023-05-09T12:19:35;1.80;;;1.35;;
53503;SDS011;39387;50.998;22.340;2023-05-09T12:22:04;1.40;;;1.23;;
53503;SDS011;39387;50.998;22.340;2023-05-09T12:24:31;1.85;;;1.00;;
53503;SDS011;39387;50.998;22.340;2023-05-09T12:27:01;1.40;;;1.23;;
53503;SDS011;39387;50.998;22.340;2023-05-09T12:29:29;3.03;;;1.52;;
53503;SDS011;39387;50.998;22.340;2023-05-09T12:31:57;1.77;;;1.35;;
53503;SDS011;39387;50.998;22.340;2023-05-09T12:34:24;1.88;;;1.40;;
53503;SDS011;39387;50.998;22.340;2023-05-09T12:36:52;2.13;;;1.30;;
53503;SDS011;39387;50.998;22.340;2023-05-09T12:39:21;1.50;;;1.40;;
53503;SDS011;39387;50.998;22.340;2023-05-09T12:41:49;1.40;;;1.30;;
53503;SDS011;39387;50.998;22.340;2023-05-09T12:44:19;3.28;;;1.30;;
53503;SDS011;39387;50.998;22.340;2023-05-09T12:46:54;2.15;;;1.50;;
53503;SDS011;39387;50.998;22.340;2023-05-09T12:49:22;1.77;;;1.60;;
53503;SDS011;39387;50.998;22.340;2023-05-09T12:51:51;1.58;;;1.20;;
53503;SDS011;39387;50.998;22.340;2023-05-09T12:54:21;1.73;;;1.20;;
53503;SDS011;39387;50.998;22.340;2023-05-09T12:56:49;1.10;;;1.00;;
53503;SDS011;39387;50.998;22.340;2023-05-09T12:59:21;1.90;;;1.55;;
53503;SDS011;39387;50.998;22.340;2023-05-09T13:01:53;2.08;;;1.00;;
53503;SDS011;39387;50.998;22.340;2023-05-09T13:04:22;1.50;;;1.30;;
53503;SDS011;39387;50.998;22.340;2023-05-09T13:06:51;1.20;;;1.10;;
53503;SDS011;39387;50.998;22.340;2023-05-09T13:09:21;1.30;;;1.15;;
53503;SDS011;39387;50.998;22.340;2023-05-09T13:11:50;1.95;;;1.40;;
53503;SDS011;39387;50.998;22.340;2023-05-09T13:14:18;1.98;;;1.20;;
53503;SDS011;39387;50.998;22.340;2023-05-09T13:16:46;1.20;;;1.05;;
53503;SDS011;39387;50.998;22.340;2023-05-09T13:19:13;1.67;;;1.10;;
53503;SDS011;39387;50.998;22.340;2023-05-09T13:21:41;2.22;;;1.40;;
53503;SDS011;39387;50.998;22.340;2023-05-09T13:24:08;3.03;;;1.40;;
53503;SDS011;39387;50.998;22.340;2023-05-09T13:26:37;1.95;;;1.30;;
53503;SDS011;39387;50.998;22.340;2023-05-09T13:29:04;1.50;;;1.27;;
53503;SDS011;39387;50.998;22.340;2023-05-09T13:31:32;2.13;;;1.40;;
53503;SDS011;39387;50.998;22.340;2023-05-09T13:34:00;1.20;;;1.10;;
53503;SDS011;39387;50.998;22.340;2023-05-09T13:36:27;3.30;;;1.50;;
53503;SDS011;39387;50.998;22.340;2023-05-09T13:38:56;2.33;;;1.10;;
53503;SDS011;39387;50.998;22.340;2023-05-09T13:41:23;1.17;;;0.95;;
53503;SDS011;39387;50.998;22.340;2023-05-09T13:43:52;2.08;;;1.40;;
53503;SDS011;39387;50.998;22.340;2023-05-09T13:46:19;1.27;;;1.13;;
53503;SDS011;39387;50.998;22.340;2023-05-09T13:48:47;1.35;;;1.25;;
53503;SDS011;39387;50.998;22.340;2023-05-09T13:51:14;1.67;;;1.40;;
53503;SDS011;39387;50.998;22.340;2023-05-09T13:53:41;1.40;;;1.20;;
53503;SDS011;39387;50.998;22.340;2023-05-09T13:56:09;1.98;;;1.13;;
53503;SDS011;39387;50.998;22.340;2023-05-09T13:58:36;6.18;;;3.63;;
53503;SDS011;39387;50.998;22.340;2023-05-09T14:01:05;2.70;;;1.50;;
53503;SDS011;39387;50.998;22.340;2023-05-09T14:03:33;2.15;;;1.92;;
53503;SDS011;39387;50.998;22.340;2023-05-09T14:06:00;1.33;;;1.20;;
53503;SDS011;39387;50.998;22.340;2023-05-09T14:08:28;1.73;;;1.48;;
53503;SDS011;39387;50.998;22.340;2023-05-09T14:10:56;1.10;;;1.00;;
53503;SDS011;39387;50.998;22.340;2023-05-09T14:13:23;1.42;;;1.25;;
53503;SDS011;39387;50.998;22.340;2023-05-09T14:15:51;1.58;;;1.10;;
53503;SDS011;39387;50.998;22.340;2023-05-09T14:18:19;0.93;;;0.90;;
53503;SDS011;39387;50.998;22.340;2023-05-09T14:20:47;1.20;;;1.10;;
53503;SDS011;39387;50.998;22.340;2023-05-09T14:23:14;0.85;;;0.80;;
53503;SDS011;39387;50.998;22.340;2023-05-09T14:25:42;2.60;;;1.05;;
53503;SDS011;39387;50.998;22.340;2023-05-09T14:28:09;1.35;;;1.20;;
53503;SDS011;39387;50.998;22.340;2023-05-09T14:30:36;1.38;;;1.20;;
53503;SDS011;39387;50.998;22.340;2023-05-09T14:33:04;1.35;;;1.20;;
53503;SDS011;39387;50.998;22.340;2023-05-09T14:35:33;2.28;;;1.10;;
53503;SDS011;39387;50.998;22.340;2023-05-09T14:38:00;1.60;;;1.08;;
53503;SDS011;39387;50.998;22.340;2023-05-09T14:40:28;2.42;;;1.30;;
53503;SDS011;39387;50.998;22.340;2023-05-09T14:42:56;1.13;;;0.95;;
53503;SDS011;39387;50.998;22.340;2023-05-09T14:45:27;2.38;;;1.30;;
53503;SDS011;39387;50.998;22.340;2023-05-09T14:47:54;2.38;;;1.35;;
53503;SDS011;39387;50.998;22.340;2023-05-09T14:50:22;3.30;;;1.20;;
53503;SDS011;39387;50.998;22.340;2023-05-09T14:52:51;1.20;;;1.10;;
53503;SDS011;39387;50.998;22.340;2023-05-09T14:55:18;2.28;;;1.10;;